createdAt,value
2022-09-06T00:00:10.454Z,90.77
2022-09-06T00:02:41.528Z,90.74
2022-09-06T00:05:10.619Z,90.92
2022-09-06T00:07:37.974Z,90.70
2022-09-06T00:10:05.698Z,90.92
2022-09-06T00:12:33.150Z,90.84
2022-09-06T00:14:59.980Z,90.72
2022-09-06T00:17:27.156Z,90.59
2022-09-06T00:19:54.000Z,90.68
2022-09-06T00:22:20.855Z,90.66
2022-09-06T00:24:47.673Z,90.64
2022-09-06T00:27:14.764Z,90.66
2022-09-06T00:29:41.961Z,90.69
2022-09-06T00:32:09.177Z,90.78
2022-09-06T00:34:36.141Z,90.76
2022-09-06T00:37:03.117Z,90.91
2022-09-06T00:39:30.014Z,91.07
2022-09-06T00:41:56.930Z,91.11
2022-09-06T00:44:23.754Z,91.07
2022-09-06T00:46:54.333Z,91.08
2022-09-06T00:49:24.447Z,91.14
2022-09-06T00:51:59.135Z,91.03
2022-09-06T00:54:26.492Z,91.18
2022-09-06T00:56:54.548Z,91.27
2022-09-06T00:59:21.909Z,91.53
2022-09-06T01:01:49.062Z,91.56
2022-09-06T01:04:16.358Z,91.71
2022-09-06T01:06:49.356Z,91.73
2022-09-06T01:09:49.186Z,91.89
2022-09-06T01:12:48.588Z,91.90
2022-09-06T01:15:23.349Z,92.10
2022-09-06T01:17:59.157Z,92.25
2022-09-06T01:20:44.976Z,92.04
2022-09-06T01:23:49.284Z,92.11
2022-09-06T01:26:16.163Z,92.36
2022-09-06T01:28:50.892Z,92.45
2022-09-06T01:31:52.285Z,92.34
2022-09-06T01:34:36.852Z,92.23
2022-09-06T01:37:10.820Z,92.13
2022-09-06T01:39:39.755Z,92.35
2022-09-06T01:42:17.814Z,92.32
2022-09-06T01:44:56.276Z,92.28
2022-09-06T01:47:23.173Z,92.36
2022-09-06T01:50:09.707Z,92.33
2022-09-06T01:53:11.468Z,92.36
2022-09-06T01:56:05.550Z,92.31
2022-09-06T01:58:38.495Z,92.45
2022-09-06T02:01:08.884Z,92.43
2022-09-06T02:03:47.914Z,92.38
2022-09-06T02:06:20.022Z,92.37
2022-09-06T02:09:02.888Z,92.42
2022-09-06T02:11:35.524Z,92.34
2022-09-06T02:14:07.263Z,92.37
2022-09-06T02:16:37.799Z,92.44
2022-09-06T02:19:12.716Z,92.51
2022-09-06T02:21:45.348Z,92.35
2022-09-06T02:24:19.891Z,92.33
2022-09-06T02:26:48.025Z,92.35
2022-09-06T02:29:16.549Z,92.40
2022-09-06T02:31:49.696Z,92.40
2022-09-06T02:34:20.343Z,92.53
2022-09-06T02:36:48.388Z,92.26
2022-09-06T02:39:15.412Z,92.24
2022-09-06T02:41:45.327Z,92.30
2022-09-06T02:44:12.415Z,92.15
2022-09-06T02:46:39.376Z,92.26
2022-09-06T02:49:06.308Z,92.32
2022-09-06T02:51:39.415Z,92.40
2022-09-06T02:54:07.190Z,92.44
2022-09-06T02:56:36.539Z,92.41
2022-09-06T02:59:05.448Z,92.27
2022-09-06T03:01:33.061Z,92.36
2022-09-06T03:04:00.369Z,92.25
2022-09-06T03:06:27.427Z,92.01
2022-09-06T03:08:54.256Z,91.92
2022-09-06T03:11:21.339Z,91.70
2022-09-06T03:13:48.247Z,91.38
2022-09-06T03:16:15.299Z,91.29
2022-09-06T03:18:42.305Z,91.30
2022-09-06T03:21:09.139Z,91.27
2022-09-06T03:23:36.137Z,91.05
2022-09-06T03:26:02.974Z,90.82
2022-09-06T03:28:30.134Z,90.83
2022-09-06T03:30:57.142Z,91.11
2022-09-06T03:33:24.377Z,91.26
2022-09-06T03:35:56.861Z,91.50
2022-09-06T03:38:24.966Z,91.59
2022-09-06T03:40:53.003Z,91.43
2022-09-06T03:43:21.010Z,91.08
2022-09-06T03:45:50.610Z,91.27
2022-09-06T03:48:18.986Z,91.31
2022-09-06T03:50:50.503Z,91.50
2022-09-06T03:53:18.839Z,91.72
2022-09-06T03:55:47.418Z,91.89
2022-09-06T03:58:15.828Z,91.79
2022-09-06T04:00:42.885Z,91.63
2022-09-06T04:03:09.838Z,91.49
2022-09-06T04:05:36.788Z,91.36
2022-09-06T04:08:04.022Z,91.26
2022-09-06T04:10:30.853Z,91.28
2022-09-06T04:12:57.766Z,91.11
2022-09-06T04:15:24.634Z,91.15
2022-09-06T04:17:51.558Z,91.30
2022-09-06T04:20:18.441Z,91.41
2022-09-06T04:22:45.369Z,91.61
2022-09-06T04:25:13.940Z,91.72
2022-09-06T04:27:40.892Z,91.94
2022-09-06T04:30:08.468Z,91.99
2022-09-06T04:32:35.322Z,91.98
2022-09-06T04:35:02.198Z,91.95
2022-09-06T04:37:29.056Z,91.92
2022-09-06T04:39:56.076Z,91.99
2022-09-06T04:42:22.969Z,91.92
2022-09-06T04:44:49.805Z,91.96
2022-09-06T04:47:19.285Z,91.72
2022-09-06T04:49:48.255Z,91.65
2022-09-06T04:52:15.623Z,91.76
2022-09-06T04:54:42.696Z,91.91
2022-09-06T04:57:09.805Z,91.92
2022-09-06T04:59:36.746Z,92.02
2022-09-06T05:02:04.088Z,91.92
2022-09-06T05:04:31.117Z,91.95
2022-09-06T05:07:05.320Z,92.08
2022-09-06T05:09:33.261Z,92.22
2022-09-06T05:12:00.461Z,92.13
2022-09-06T05:14:28.471Z,92.30
2022-09-06T05:16:55.453Z,92.21
2022-09-06T05:19:22.500Z,92.31
2022-09-06T05:21:51.622Z,92.41
2022-09-06T05:24:18.670Z,92.41
2022-09-06T05:26:45.499Z,92.43
2022-09-06T05:29:12.809Z,92.46
2022-09-06T05:31:39.898Z,92.49
2022-09-06T05:34:06.857Z,92.72
2022-09-06T05:36:33.980Z,92.63
2022-09-06T05:39:00.850Z,92.79
2022-09-06T05:41:27.951Z,92.83
2022-09-06T05:43:55.172Z,92.85
2022-09-06T05:46:22.090Z,92.82
2022-09-06T05:48:54.395Z,92.60
2022-09-06T05:51:21.598Z,92.55
2022-09-06T05:53:48.503Z,92.55
2022-09-06T05:56:16.281Z,92.52
2022-09-06T05:58:43.537Z,92.59
2022-09-06T06:01:21.585Z,92.66
2022-09-06T06:04:00.458Z,92.60
2022-09-06T06:06:29.373Z,92.56
2022-09-06T06:08:56.455Z,92.62
2022-09-06T06:11:25.037Z,92.72
2022-09-06T06:13:52.584Z,92.84
2022-09-06T06:16:22.068Z,92.98
2022-09-06T06:18:52.186Z,92.95
2022-09-06T06:21:21.567Z,92.98
2022-09-06T06:23:52.452Z,92.95
2022-09-06T06:26:20.167Z,92.82
2022-09-06T06:28:47.101Z,92.80
2022-09-06T06:31:14.709Z,92.97
2022-09-06T06:33:42.152Z,92.95
2022-09-06T06:36:15.169Z,92.97
2022-09-06T06:38:43.805Z,94.78
2022-09-06T06:41:13.577Z,95.43
2022-09-06T06:43:40.537Z,95.13
2022-09-06T06:46:10.503Z,94.78
2022-09-06T06:48:39.794Z,94.61
2022-09-06T06:51:07.444Z,94.50
2022-09-06T06:53:35.436Z,94.28
2022-09-06T06:56:17.147Z,94.30
2022-09-06T06:58:45.132Z,94.15
2022-09-06T07:01:12.721Z,94.16
2022-09-06T07:03:39.925Z,94.04
2022-09-06T07:08:39.926Z,93.85
2022-09-06T07:11:08.261Z,93.75
2022-09-06T07:13:35.239Z,93.85
2022-09-06T07:16:13.631Z,94.17
2022-09-06T07:18:42.407Z,93.98
2022-09-06T07:24:05.969Z,94.08
2022-09-06T07:26:34.037Z,94.03
2022-09-06T07:29:02.910Z,93.86
2022-09-06T07:34:18.053Z,93.99
2022-09-06T07:36:44.937Z,94.17
2022-09-06T07:39:12.221Z,94.26
2022-09-06T07:41:39.088Z,94.34
2022-09-06T07:44:05.981Z,94.21
2022-09-06T07:46:33.115Z,94.37
2022-09-06T07:49:00.089Z,94.50
2022-09-06T07:51:26.907Z,94.19
2022-09-06T07:54:19.402Z,94.23
2022-09-06T07:56:44.761Z,94.18
2022-09-06T07:59:11.785Z,94.04
2022-09-06T08:01:39.651Z,93.95
2022-09-06T08:04:12.867Z,93.97
2022-09-06T08:09:33.484Z,94.23
2022-09-06T08:12:06.536Z,94.25
2022-09-06T08:14:34.599Z,94.61
2022-09-06T08:17:04.829Z,94.61
2022-09-06T08:19:31.756Z,94.55
2022-09-06T08:21:58.654Z,94.80
2022-09-06T08:24:25.681Z,94.82
2022-09-06T08:26:52.881Z,94.97
2022-09-06T08:29:22.768Z,95.36
2022-09-06T08:31:49.677Z,95.23
2022-09-06T08:34:16.587Z,95.25
2022-09-06T08:36:45.458Z,95.59
2022-09-06T08:39:12.386Z,95.43
2022-09-06T08:42:05.497Z,95.54
2022-09-06T08:44:56.391Z,95.44
2022-09-06T08:47:24.417Z,95.39
2022-09-06T08:49:56.966Z,95.36
2022-09-06T08:52:23.883Z,95.41
2022-09-06T08:55:27.802Z,95.34
2022-09-06T08:58:03.401Z,95.20
2022-09-06T09:00:31.900Z,95.20
2022-09-06T09:03:16.422Z,95.22
2022-09-06T09:05:47.362Z,95.14
2022-09-06T09:08:22.313Z,95.21
2022-09-06T09:11:02.135Z,95.19
2022-09-06T09:13:34.701Z,95.12
2022-09-06T09:16:02.227Z,95.15
2022-09-06T09:18:38.513Z,95.12
2022-09-06T09:21:06.029Z,95.04
2022-09-06T09:23:32.869Z,94.98
2022-09-06T09:26:07.135Z,95.10
2022-09-06T09:28:35.514Z,95.10
2022-09-06T09:31:02.450Z,95.33
2022-09-06T09:33:35.413Z,95.32
2022-09-06T09:36:07.443Z,95.49
2022-09-06T09:38:42.567Z,95.58
2022-09-06T09:41:10.992Z,95.49
2022-09-06T09:43:42.616Z,95.43
2022-09-06T09:46:15.467Z,95.20
2022-09-06T09:49:07.717Z,95.18
2022-09-06T09:51:46.065Z,95.20
2022-09-06T09:54:29.467Z,95.04
2022-09-06T09:56:57.637Z,95.08
2022-09-06T09:59:29.436Z,95.01
2022-09-06T10:02:01.130Z,95.00
2022-09-06T10:04:45.138Z,94.92
2022-09-06T10:07:19.868Z,94.81
2022-09-06T10:09:49.368Z,94.75
2022-09-06T10:12:19.195Z,94.69
2022-09-06T10:14:49.176Z,94.49
2022-09-06T10:17:37.126Z,94.39
2022-09-06T10:20:10.263Z,94.44
2022-09-06T10:23:02.247Z,94.38
2022-09-06T10:25:52.709Z,94.26
2022-09-06T10:28:29.785Z,94.31
2022-09-06T10:31:05.827Z,94.37
2022-09-06T10:33:35.498Z,94.17
2022-09-06T10:36:03.685Z,94.04
2022-09-06T10:38:42.371Z,93.98
2022-09-06T10:41:41.762Z,94.02
2022-09-06T10:44:31.846Z,93.79
2022-09-06T10:47:13.411Z,93.85
2022-09-06T10:49:45.540Z,93.65
2022-09-06T10:52:19.092Z,93.59
2022-09-06T10:54:47.407Z,93.72
2022-09-06T11:00:17.228Z,93.70
2022-09-06T11:05:59.554Z,93.52
2022-09-06T11:08:57.722Z,93.58
2022-09-06T11:12:02.336Z,93.59
2022-09-06T11:14:30.233Z,93.52
2022-09-06T11:17:20.287Z,93.29
2022-09-06T11:20:02.045Z,93.43
2022-09-06T11:22:52.393Z,93.45
2022-09-06T11:25:51.580Z,93.17
2022-09-06T11:28:46.404Z,93.11
2022-09-06T11:34:21.789Z,93.33
2022-09-06T11:36:55.824Z,93.33
2022-09-06T11:42:47.797Z,93.26
2022-09-06T11:45:21.338Z,93.18
2022-09-06T11:47:50.912Z,93.26
2022-09-06T11:50:20.561Z,93.17
2022-09-06T11:53:14.922Z,93.53
2022-09-06T11:56:00.820Z,93.56
2022-09-06T11:58:42.704Z,93.44
2022-09-06T12:01:12.355Z,93.64
2022-09-06T12:04:06.716Z,93.58
2022-09-06T12:06:36.262Z,93.60
2022-09-06T12:09:28.744Z,93.43
2022-09-06T12:11:56.709Z,93.43
2022-09-06T12:14:42.628Z,93.55
2022-09-06T12:17:09.904Z,93.79
2022-09-06T12:20:06.192Z,93.70
2022-09-06T12:22:33.148Z,93.88
2022-09-06T12:25:00.799Z,93.76
2022-09-06T12:27:45.133Z,93.92
2022-09-06T12:30:13.893Z,93.95
2022-09-06T12:32:48.547Z,93.83
2022-09-06T12:38:14.275Z,93.89
2022-09-06T12:40:46.083Z,93.80
2022-09-06T12:43:15.171Z,93.98
2022-09-06T12:45:48.071Z,93.98
2022-09-06T12:48:35.387Z,93.77
2022-09-06T12:51:06.063Z,93.69
2022-09-06T12:53:34.973Z,93.66
2022-09-06T12:56:14.347Z,93.86
2022-09-06T12:58:41.556Z,93.76
2022-09-06T13:01:13.970Z,93.82
2022-09-06T13:03:54.631Z,93.82
2022-09-06T13:06:27.037Z,93.88
2022-09-06T13:08:57.349Z,93.82
2022-09-06T13:11:32.781Z,93.97
2022-09-06T13:14:00.710Z,94.13
2022-09-06T13:16:42.402Z,94.21
2022-09-06T13:19:35.534Z,94.23
2022-09-06T13:22:05.419Z,94.28
2022-09-06T13:24:35.472Z,94.40
2022-09-06T13:27:31.210Z,94.59
2022-09-06T13:30:09.266Z,94.58
2022-09-06T13:32:45.430Z,94.61
2022-09-06T13:35:23.963Z,94.64
2022-09-06T13:37:51.084Z,94.77
2022-09-06T13:43:33.466Z,94.67
2022-09-06T13:46:08.163Z,94.78
2022-09-06T13:48:35.977Z,94.75
2022-09-06T13:51:08.321Z,94.88
2022-09-06T13:53:35.749Z,94.61
2022-09-06T13:56:03.152Z,94.75
2022-09-06T13:58:30.143Z,94.65
2022-09-06T14:00:58.389Z,94.72
2022-09-06T14:03:29.225Z,94.77
2022-09-06T14:05:56.079Z,94.72
2022-09-06T14:08:23.163Z,94.69
2022-09-06T14:10:51.520Z,94.89
2022-09-06T14:13:18.806Z,95.04
2022-09-06T14:15:47.040Z,95.01
2022-09-06T14:18:14.714Z,94.94
2022-09-06T14:20:42.545Z,95.06
2022-09-06T14:23:09.804Z,95.07
2022-09-06T14:25:37.802Z,94.91
2022-09-06T14:28:05.503Z,94.92
2022-09-06T14:30:32.463Z,94.95
2022-09-06T14:32:59.385Z,94.97
2022-09-06T14:35:27.706Z,94.83
2022-09-06T14:37:54.533Z,95.03
2022-09-06T14:40:27.620Z,95.13
2022-09-06T14:42:54.509Z,95.18
2022-09-06T14:45:21.452Z,95.10
2022-09-06T14:47:48.489Z,95.23
2022-09-06T14:50:15.349Z,95.12
2022-09-06T14:52:42.292Z,95.08
2022-09-06T14:55:09.535Z,95.04
2022-09-06T14:57:36.548Z,95.06
2022-09-06T15:00:07.716Z,95.17
2022-09-06T15:02:35.159Z,95.23
2022-09-06T15:05:02.817Z,95.23
2022-09-06T15:07:30.370Z,95.40
2022-09-06T15:09:57.544Z,95.24
2022-09-06T15:12:24.756Z,95.32
2022-09-06T15:14:51.715Z,95.29
2022-09-06T15:17:18.667Z,95.12
2022-09-06T15:19:45.905Z,95.15
2022-09-06T15:22:12.844Z,95.17
2022-09-06T15:24:40.574Z,95.18
2022-09-06T15:27:07.543Z,95.17
2022-09-06T15:29:34.415Z,95.21
2022-09-06T15:32:01.386Z,95.21
2022-09-06T15:34:28.576Z,95.18
2022-09-06T15:36:56.692Z,95.11
2022-09-06T15:39:23.639Z,95.15
2022-09-06T15:41:51.677Z,94.99
2022-09-06T15:44:20.724Z,95.12
2022-09-06T15:46:56.843Z,95.17
2022-09-06T15:49:28.903Z,95.13
2022-09-06T15:51:57.473Z,94.88
2022-09-06T15:54:43.036Z,94.92
2022-09-06T15:57:10.135Z,95.01
2022-09-06T15:59:37.012Z,95.01
2022-09-06T16:02:03.953Z,95.13
2022-09-06T16:04:30.984Z,95.10
2022-09-06T16:06:57.990Z,95.09
2022-09-06T16:09:24.897Z,95.13
2022-09-06T16:11:51.819Z,95.00
2022-09-06T16:14:19.525Z,95.08
2022-09-06T16:16:46.613Z,95.20
2022-09-06T16:19:14.125Z,95.02
2022-09-06T16:21:42.691Z,95.20
2022-09-06T16:24:12.335Z,95.04
2022-09-06T16:26:41.975Z,94.88
2022-09-06T16:29:10.979Z,94.93
2022-09-06T16:31:40.531Z,94.89
2022-09-06T16:34:12.026Z,94.77
2022-09-06T16:36:39.517Z,94.80
2022-09-06T16:39:07.830Z,94.82
2022-09-06T16:41:40.808Z,94.75
2022-09-06T16:44:16.513Z,94.59
2022-09-06T16:46:45.334Z,94.62
2022-09-06T16:49:12.426Z,94.50
2022-09-06T16:51:39.382Z,94.49
2022-09-06T16:54:06.373Z,94.46
2022-09-06T16:56:35.905Z,94.61
2022-09-06T16:59:05.624Z,94.78
2022-09-06T17:01:33.706Z,94.46
2022-09-06T17:04:04.536Z,94.52
2022-09-06T17:06:33.210Z,94.52
2022-09-06T17:09:00.203Z,94.61
2022-09-06T17:11:28.781Z,94.49
2022-09-06T17:13:56.855Z,94.36
2022-09-06T17:16:42.770Z,94.43
2022-09-06T17:19:09.990Z,94.46
2022-09-06T17:21:39.220Z,94.39
2022-09-06T17:24:07.468Z,94.48
2022-09-06T17:26:36.187Z,94.33
2022-09-06T17:29:03.798Z,94.36
2022-09-06T17:31:30.741Z,94.45
2022-09-06T17:33:59.675Z,94.38
2022-09-06T17:36:30.612Z,94.23
2022-09-06T17:39:13.960Z,94.27
2022-09-06T17:41:45.650Z,94.25
2022-09-06T17:44:14.893Z,94.42
2022-09-06T17:46:57.089Z,94.37
2022-09-06T17:49:30.289Z,94.20
2022-09-06T17:51:57.225Z,93.98
2022-09-06T17:54:24.173Z,94.16
2022-09-06T17:56:51.644Z,94.12
2022-09-06T17:59:18.848Z,94.01
2022-09-06T18:01:46.177Z,93.89
2022-09-06T18:04:18.092Z,94.07
2022-09-06T18:06:46.864Z,94.04
2022-09-06T18:09:16.380Z,93.95
2022-09-06T18:11:46.023Z,94.01
2022-09-06T18:14:16.844Z,94.03
2022-09-06T18:16:49.280Z,93.94
2022-09-06T18:19:17.578Z,93.92
2022-09-06T18:21:45.375Z,94.09
2022-09-06T18:24:14.069Z,94.09
2022-09-06T18:26:41.698Z,94.21
2022-09-06T18:29:12.104Z,94.23
2022-09-06T18:31:39.790Z,94.15
2022-09-06T18:34:07.935Z,94.11
2022-09-06T18:36:35.577Z,93.99
2022-09-06T18:39:04.737Z,93.94
2022-09-06T18:41:51.317Z,93.88
2022-09-06T18:44:18.346Z,93.88
2022-09-06T18:46:45.451Z,93.86
2022-09-06T18:49:15.051Z,93.75
2022-09-06T18:51:42.740Z,93.59
2022-09-06T18:54:11.041Z,93.59
2022-09-06T18:56:38.738Z,93.50
2022-09-06T18:59:06.167Z,93.56
2022-09-06T19:01:35.120Z,93.41
2022-09-06T19:04:03.709Z,93.45
2022-09-06T19:06:32.549Z,93.49
2022-09-06T19:09:01.894Z,93.48
2022-09-06T19:11:29.397Z,93.56
2022-09-06T19:13:57.788Z,93.72
2022-09-06T19:16:26.346Z,93.72
2022-09-06T19:18:56.052Z,93.82
2022-09-06T19:21:25.667Z,93.69
2022-09-06T19:24:01.401Z,93.82
2022-09-06T19:26:31.352Z,93.82
2022-09-06T19:29:00.520Z,93.69
2022-09-06T19:31:30.303Z,93.63
2022-09-06T19:33:57.624Z,93.50
2022-09-06T19:36:26.761Z,93.56
2022-09-06T19:39:05.800Z,93.60
2022-09-06T19:41:36.705Z,93.66
2022-09-06T19:44:05.961Z,93.56
2022-09-06T19:46:34.938Z,93.55
2022-09-06T19:49:02.439Z,93.52
2022-09-06T19:51:29.548Z,93.49
2022-09-06T19:54:02.774Z,93.40
2022-09-06T19:56:33.738Z,93.43
2022-09-06T19:59:05.915Z,93.61
2022-09-06T20:01:34.782Z,93.54
2022-09-06T20:04:03.543Z,93.46
2022-09-06T20:06:31.498Z,93.36
2022-09-06T20:08:59.622Z,93.19
2022-09-06T20:11:29.567Z,93.41
2022-09-06T20:13:56.795Z,93.42
2022-09-06T20:16:27.445Z,93.37
2022-09-06T20:18:55.234Z,93.30
2022-09-06T20:21:22.666Z,93.45
2022-09-06T20:23:54.146Z,93.36
2022-09-06T20:26:23.841Z,93.58
2022-09-06T20:29:08.978Z,93.42
2022-09-06T20:31:36.976Z,93.47
2022-09-06T20:34:05.658Z,93.45
2022-09-06T20:36:32.832Z,93.38
2022-09-06T20:38:59.838Z,93.34
2022-09-06T20:41:27.331Z,93.49
2022-09-06T20:43:56.264Z,93.92
2022-09-06T20:46:31.622Z,94.15
2022-09-06T20:49:01.983Z,94.24
2022-09-06T20:51:29.048Z,94.24
2022-09-06T20:53:57.939Z,94.05
2022-09-06T20:56:27.355Z,94.27
2022-09-06T20:59:00.765Z,94.21
2022-09-06T21:01:30.357Z,94.47
2022-09-06T21:03:59.870Z,94.66
2022-09-06T21:06:33.862Z,94.54
2022-09-06T21:09:01.662Z,94.80
2022-09-06T21:11:28.667Z,94.72
2022-09-06T21:13:57.212Z,94.79
2022-09-06T21:16:26.238Z,94.70
2022-09-06T21:18:55.733Z,94.82
2022-09-06T21:21:23.018Z,94.79
2022-09-06T21:23:49.883Z,95.01
2022-09-06T21:26:17.576Z,94.95
2022-09-06T21:28:45.927Z,95.02
2022-09-06T21:31:15.311Z,95.11
2022-09-06T21:33:47.352Z,95.25
2022-09-06T21:36:19.513Z,95.26
2022-09-06T21:38:53.483Z,95.36
2022-09-06T21:41:21.407Z,95.39
2022-09-06T21:43:52.788Z,95.21
2022-09-06T21:46:21.401Z,95.41
2022-09-06T21:48:50.932Z,95.28
2022-09-06T21:51:21.505Z,95.43
2022-09-06T21:53:50.611Z,95.46
2022-09-06T21:56:23.796Z,95.28
2022-09-06T21:58:55.998Z,95.06
2022-09-06T22:01:24.495Z,94.98
2022-09-06T22:03:51.736Z,95.14
2022-09-06T22:06:22.269Z,94.96
2022-09-06T22:08:49.584Z,95.05
2022-09-06T22:11:17.750Z,95.12
2022-09-06T22:13:45.975Z,95.41
2022-09-06T22:16:15.353Z,95.26
2022-09-06T22:18:42.694Z,95.21
2022-09-06T22:21:12.417Z,95.23
2022-09-06T22:23:39.521Z,95.39
2022-09-06T22:26:09.188Z,95.39
2022-09-06T22:28:36.556Z,95.38
2022-09-06T22:31:04.394Z,95.51
2022-09-06T22:33:31.653Z,95.46
2022-09-06T22:36:01.853Z,95.46
2022-09-06T22:38:29.657Z,95.52
2022-09-06T22:40:59.664Z,95.17
2022-09-06T22:43:26.782Z,95.34
2022-09-06T22:45:53.659Z,95.45
2022-09-06T22:48:20.928Z,95.22
2022-09-06T22:50:47.761Z,95.06
2022-09-06T22:53:14.654Z,95.23
2022-09-06T22:55:46.922Z,95.37
2022-09-06T22:58:14.358Z,95.27
2022-09-06T23:00:41.280Z,95.23
2022-09-06T23:03:08.213Z,95.29
2022-09-06T23:05:35.373Z,95.29
2022-09-06T23:08:03.610Z,95.27
2022-09-06T23:10:31.694Z,95.36
2022-09-06T23:12:59.119Z,95.23
2022-09-06T23:15:26.372Z,95.26
2022-09-06T23:17:53.327Z,95.35
2022-09-06T23:20:20.189Z,95.42
2022-09-06T23:22:48.221Z,95.47
2022-09-06T23:25:15.205Z,95.47
2022-09-06T23:27:42.186Z,95.45
2022-09-06T23:30:09.808Z,95.33
2022-09-06T23:32:36.937Z,95.16
2022-09-06T23:35:04.071Z,95.12
2022-09-06T23:37:31.271Z,95.14
2022-09-06T23:39:58.177Z,95.11
2022-09-06T23:42:25.239Z,94.98
2022-09-06T23:44:57.175Z,94.93
2022-09-06T23:47:24.752Z,94.77
2022-09-06T23:49:51.742Z,94.72
2022-09-06T23:52:18.813Z,94.69
2022-09-06T23:54:45.709Z,94.91
2022-09-06T23:57:12.711Z,94.89
2022-09-06T23:59:39.608Z,94.82
